sensor_id;sensor_type;location;lat;lon;timestamp;temperature;humidity
68026;SHT31;54819;48.030;14.710;2023-06-10T00:00:27;14.96;82.12
68026;SHT31;54819;48.030;14.710;2023-06-10T00:02:54;14.98;82.06
68026;SHT31;54819;48.030;14.710;2023-06-10T00:05:21;14.99;81.83
68026;SHT31;54819;48.030;14.710;2023-06-10T00:07:47;14.97;81.92
68026;SHT31;54819;48.030;14.710;2023-06-10T00:10:16;14.98;81.82
68026;SHT31;54819;48.030;14.710;2023-06-10T00:12:42;14.96;81.70
68026;SHT31;54819;48.030;14.710;2023-06-10T00:15:10;14.96;81.64
68026;SHT31;54819;48.030;14.710;2023-06-10T00:17:37;14.94;81.41
68026;SHT31;54819;48.030;14.710;2023-06-10T00:20:07;14.92;81.60
68026;SHT31;54819;48.030;14.710;2023-06-10T00:22:37;14.90;81.81
68026;SHT31;54819;48.030;14.710;2023-06-10T00:25:06;14.88;81.98
68026;SHT31;54819;48.030;14.710;2023-06-10T00:27:33;14.87;82.15
68026;SHT31;54819;48.030;14.710;2023-06-10T00:30:02;14.85;82.18
68026;SHT31;54819;48.030;14.710;2023-06-10T00:32:35;14.83;82.36
68026;SHT31;54819;48.030;14.710;2023-06-10T00:35:03;14.81;82.15
68026;SHT31;54819;48.030;14.710;2023-06-10T00:37:30;14.79;81.83
68026;SHT31;54819;48.030;14.710;2023-06-10T00:39:58;14.72;81.97
68026;SHT31;54819;48.030;14.710;2023-06-10T00:42:25;14.67;81.98
68026;SHT31;54819;48.030;14.710;2023-06-10T00:44:53;14.60;82.12
68026;SHT31;54819;48.030;14.710;2023-06-10T00:47:21;14.50;81.82
68026;SHT31;54819;48.030;14.710;2023-06-10T00:49:49;14.40;82.23
68026;SHT31;54819;48.030;14.710;2023-06-10T00:52:17;14.34;82.51
68026;SHT31;54819;48.030;14.710;2023-06-10T00:54:46;14.27;82.90
68026;SHT31;54819;48.030;14.710;2023-06-10T00:57:14;14.21;82.76
68026;SHT31;54819;48.030;14.710;2023-06-10T00:59:41;14.17;82.53
68026;SHT31;54819;48.030;14.710;2023-06-10T01:02:12;14.14;82.52
68026;SHT31;54819;48.030;14.710;2023-06-10T01:04:39;14.10;83.10
68026;SHT31;54819;48.030;14.710;2023-06-10T01:10:02;14.02;82.82
68026;SHT31;54819;48.030;14.710;2023-06-10T01:15:33;13.99;83.44
68026;SHT31;54819;48.030;14.710;2023-06-10T01:18:02;14.00;83.45
68026;SHT31;54819;48.030;14.710;2023-06-10T01:20:42;14.07;83.82
68026;SHT31;54819;48.030;14.710;2023-06-10T01:23:10;14.14;84.10
68026;SHT31;54819;48.030;14.710;2023-06-10T01:25:38;14.21;84.17
68026;SHT31;54819;48.030;14.710;2023-06-10T01:28:09;14.26;84.38
68026;SHT31;54819;48.030;14.710;2023-06-10T01:30:42;14.29;84.61
68026;SHT31;54819;48.030;14.710;2023-06-10T01:33:17;14.33;84.51
68026;SHT31;54819;48.030;14.710;2023-06-10T01:35:48;14.36;84.51
68026;SHT31;54819;48.030;14.710;2023-06-10T01:38:16;14.38;84.39
68026;SHT31;54819;48.030;14.710;2023-06-10T01:40:46;14.37;84.23
68026;SHT31;54819;48.030;14.710;2023-06-10T01:43:15;14.38;84.08
68026;SHT31;54819;48.030;14.710;2023-06-10T01:45:41;14.38;84.29
68026;SHT31;54819;48.030;14.710;2023-06-10T01:48:08;14.39;84.28
68026;SHT31;54819;48.030;14.710;2023-06-10T01:50:35;14.39;84.15
68026;SHT31;54819;48.030;14.710;2023-06-10T01:53:03;14.40;84.34
68026;SHT31;54819;48.030;14.710;2023-06-10T01:55:31;14.40;84.58
68026;SHT31;54819;48.030;14.710;2023-06-10T01:57:58;14.41;84.18
68026;SHT31;54819;48.030;14.710;2023-06-10T02:00:24;14.42;83.57
68026;SHT31;54819;48.030;14.710;2023-06-10T02:02:51;14.40;83.76
68026;SHT31;54819;48.030;14.710;2023-06-10T02:05:18;14.40;84.13
68026;SHT31;54819;48.030;14.710;2023-06-10T02:07:45;14.40;84.15
68026;SHT31;54819;48.030;14.710;2023-06-10T02:10:12;14.40;83.92
68026;SHT31;54819;48.030;14.710;2023-06-10T02:12:38;14.38;84.33
68026;SHT31;54819;48.030;14.710;2023-06-10T02:15:05;14.36;83.99
68026;SHT31;54819;48.030;14.710;2023-06-10T02:17:32;14.34;83.87
68026;SHT31;54819;48.030;14.710;2023-06-10T02:19:59;14.32;83.87
68026;SHT31;54819;48.030;14.710;2023-06-10T02:22:30;14.31;83.99
68026;SHT31;54819;48.030;14.710;2023-06-10T02:24:57;14.30;84.25
68026;SHT31;54819;48.030;14.710;2023-06-10T02:27:23;14.28;84.18
68026;SHT31;54819;48.030;14.710;2023-06-10T02:29:51;14.26;84.11
68026;SHT31;54819;48.030;14.710;2023-06-10T02:32:17;14.21;84.05
68026;SHT31;54819;48.030;14.710;2023-06-10T02:34:44;14.17;84.07
68026;SHT31;54819;48.030;14.710;2023-06-10T02:37:12;14.13;84.01
68026;SHT31;54819;48.030;14.710;2023-06-10T02:39:39;14.08;84.13
68026;SHT31;54819;48.030;14.710;2023-06-10T02:42:08;14.05;84.17
68026;SHT31;54819;48.030;14.710;2023-06-10T02:44:34;14.00;84.07
68026;SHT31;54819;48.030;14.710;2023-06-10T02:47:02;13.96;83.98
68026;SHT31;54819;48.030;14.710;2023-06-10T02:49:29;13.91;83.99
68026;SHT31;54819;48.030;14.710;2023-06-10T02:51:57;13.87;84.01
68026;SHT31;54819;48.030;14.710;2023-06-10T02:54:25;13.83;84.09
68026;SHT31;54819;48.030;14.710;2023-06-10T02:56:52;13.79;84.29
68026;SHT31;54819;48.030;14.710;2023-06-10T02:59:24;13.75;84.37
68026;SHT31;54819;48.030;14.710;2023-06-10T03:01:51;13.72;84.41
68026;SHT31;54819;48.030;14.710;2023-06-10T03:04:18;13.68;84.44
68026;SHT31;54819;48.030;14.710;2023-06-10T03:06:51;13.64;84.24
68026;SHT31;54819;48.030;14.710;2023-06-10T03:09:22;13.62;84.10
68026;SHT31;54819;48.030;14.710;2023-06-10T03:11:51;13.59;84.03
68026;SHT31;54819;48.030;14.710;2023-06-10T03:14:18;13.58;84.85
68026;SHT31;54819;48.030;14.710;2023-06-10T03:16:45;13.59;85.13
68026;SHT31;54819;48.030;14.710;2023-06-10T03:19:12;13.61;85.25
68026;SHT31;54819;48.030;14.710;2023-06-10T03:21:43;13.65;85.24
68026;SHT31;54819;48.030;14.710;2023-06-10T03:24:11;13.69;85.13
68026;SHT31;54819;48.030;14.710;2023-06-10T03:26:38;13.72;87.62
68026;SHT31;54819;48.030;14.710;2023-06-10T03:29:05;13.75;86.51
68026;SHT31;54819;48.030;14.710;2023-06-10T03:31:32;13.83;85.88
68026;SHT31;54819;48.030;14.710;2023-06-10T03:34:03;13.93;85.42
68026;SHT31;54819;48.030;14.710;2023-06-10T03:36:29;14.00;85.30
68026;SHT31;54819;48.030;14.710;2023-06-10T03:38:56;14.09;85.43
68026;SHT31;54819;48.030;14.710;2023-06-10T03:41:23;14.19;85.16
68026;SHT31;54819;48.030;14.710;2023-06-10T03:43:52;14.26;85.25
68026;SHT31;54819;48.030;14.710;2023-06-10T03:46:19;14.26;85.60
68026;SHT31;54819;48.030;14.710;2023-06-10T03:48:46;14.23;85.87
68026;SHT31;54819;48.030;14.710;2023-06-10T03:51:13;14.17;86.50
68026;SHT31;54819;48.030;14.710;2023-06-10T03:53:39;14.18;85.13
68026;SHT31;54819;48.030;14.710;2023-06-10T03:56:06;14.19;84.93
68026;SHT31;54819;48.030;14.710;2023-06-10T03:58:33;14.26;85.08
68026;SHT31;54819;48.030;14.710;2023-06-10T04:01:00;14.33;85.11
68026;SHT31;54819;48.030;14.710;2023-06-10T04:03:31;14.41;85.07
68026;SHT31;54819;48.030;14.710;2023-06-10T04:05:58;14.46;84.89
68026;SHT31;54819;48.030;14.710;2023-06-10T04:08:25;14.53;84.93
68026;SHT31;54819;48.030;14.710;2023-06-10T04:10:52;14.58;85.07
68026;SHT31;54819;48.030;14.710;2023-06-10T04:13:19;14.63;84.84
68026;SHT31;54819;48.030;14.710;2023-06-10T04:15:51;14.70;84.75
68026;SHT31;54819;48.030;14.710;2023-06-10T04:18:18;14.77;84.73
68026;SHT31;54819;48.030;14.710;2023-06-10T04:20:44;14.83;84.72
68026;SHT31;54819;48.030;14.710;2023-06-10T04:23:11;14.89;84.66
68026;SHT31;54819;48.030;14.710;2023-06-10T04:25:40;14.96;84.49
68026;SHT31;54819;48.030;14.710;2023-06-10T04:28:07;15.02;84.60
68026;SHT31;54819;48.030;14.710;2023-06-10T04:30:33;15.10;84.59
68026;SHT31;54819;48.030;14.710;2023-06-10T04:33:00;15.16;84.02
68026;SHT31;54819;48.030;14.710;2023-06-10T04:35:27;15.21;83.71
68026;SHT31;54819;48.030;14.710;2023-06-10T04:37:55;15.27;84.13
68026;SHT31;54819;48.030;14.710;2023-06-10T04:40:22;15.26;85.52
68026;SHT31;54819;48.030;14.710;2023-06-10T04:42:49;15.26;83.88
68026;SHT31;54819;48.030;14.710;2023-06-10T04:45:16;15.26;83.97
68026;SHT31;54819;48.030;14.710;2023-06-10T04:47:43;15.29;84.69
68026;SHT31;54819;48.030;14.710;2023-06-10T04:50:10;15.35;84.58
68026;SHT31;54819;48.030;14.710;2023-06-10T04:52:36;15.38;85.17
68026;SHT31;54819;48.030;14.710;2023-06-10T04:55:03;15.41;84.89
68026;SHT31;54819;48.030;14.710;2023-06-10T04:57:30;15.43;84.90
68026;SHT31;54819;48.030;14.710;2023-06-10T04:59:57;15.45;85.18
68026;SHT31;54819;48.030;14.710;2023-06-10T05:02:23;15.51;84.89
68026;SHT31;54819;48.030;14.710;2023-06-10T05:04:50;15.59;84.74
68026;SHT31;54819;48.030;14.710;2023-06-10T05:07:17;15.68;84.22
68026;SHT31;54819;48.030;14.710;2023-06-10T05:09:44;15.77;83.87
68026;SHT31;54819;48.030;14.710;2023-06-10T05:12:11;15.86;83.76
68026;SHT31;54819;48.030;14.710;2023-06-10T05:14:38;15.96;83.57
68026;SHT31;54819;48.030;14.710;2023-06-10T05:17:05;16.09;83.17
68026;SHT31;54819;48.030;14.710;2023-06-10T05:19:32;16.19;82.98
68026;SHT31;54819;48.030;14.710;2023-06-10T05:21:59;16.31;82.87
68026;SHT31;54819;48.030;14.710;2023-06-10T05:24:25;16.45;82.61
68026;SHT31;54819;48.030;14.710;2023-06-10T05:26:52;16.61;82.38
68026;SHT31;54819;48.030;14.710;2023-06-10T05:29:19;16.79;82.10
68026;SHT31;54819;48.030;14.710;2023-06-10T05:31:46;16.91;81.59
68026;SHT31;54819;48.030;14.710;2023-06-10T05:34:12;16.98;81.47
68026;SHT31;54819;48.030;14.710;2023-06-10T05:36:39;17.07;81.27
68026;SHT31;54819;48.030;14.710;2023-06-10T05:39:06;17.20;81.06
68026;SHT31;54819;48.030;14.710;2023-06-10T05:41:32;17.29;80.82
68026;SHT31;54819;48.030;14.710;2023-06-10T05:43:59;17.31;80.95
68026;SHT31;54819;48.030;14.710;2023-06-10T05:46:26;17.34;81.05
68026;SHT31;54819;48.030;14.710;2023-06-10T05:48:52;17.40;80.85
68026;SHT31;54819;48.030;14.710;2023-06-10T05:51:19;17.52;80.74
68026;SHT31;54819;48.030;14.710;2023-06-10T05:53:46;17.63;80.33
68026;SHT31;54819;48.030;14.710;2023-06-10T05:56:13;17.65;80.31
68026;SHT31;54819;48.030;14.710;2023-06-10T05:58:41;17.71;80.42
68026;SHT31;54819;48.030;14.710;2023-06-10T06:01:07;17.84;79.86
68026;SHT31;54819;48.030;14.710;2023-06-10T06:03:34;17.95;79.49
68026;SHT31;54819;48.030;14.710;2023-06-10T06:06:02;18.07;79.39
68026;SHT31;54819;48.030;14.710;2023-06-10T06:08:29;18.11;79.62
68026;SHT31;54819;48.030;14.710;2023-06-10T06:10:56;18.24;79.57
68026;SHT31;54819;48.030;14.710;2023-06-10T06:13:23;18.33;79.42
68026;SHT31;54819;48.030;14.710;2023-06-10T06:15:50;18.47;79.39
68026;SHT31;54819;48.030;14.710;2023-06-10T06:18:17;18.67;79.39
68026;SHT31;54819;48.030;14.710;2023-06-10T06:20:45;18.87;79.13
68026;SHT31;54819;48.030;14.710;2023-06-10T06:23:11;19.03;78.92
68026;SHT31;54819;48.030;14.710;2023-06-10T06:25:38;19.22;77.68
68026;SHT31;54819;48.030;14.710;2023-06-10T06:28:06;19.38;77.09
68026;SHT31;54819;48.030;14.710;2023-06-10T06:30:33;19.60;77.31
68026;SHT31;54819;48.030;14.710;2023-06-10T06:33:00;19.66;77.02
68026;SHT31;54819;48.030;14.710;2023-06-10T06:35:27;19.61;76.91
68026;SHT31;54819;48.030;14.710;2023-06-10T06:37:56;19.68;76.07
68026;SHT31;54819;48.030;14.710;2023-06-10T06:40:26;19.88;75.81
68026;SHT31;54819;48.030;14.710;2023-06-10T06:42:52;20.03;75.70
68026;SHT31;54819;48.030;14.710;2023-06-10T06:45:42;20.13;74.93
68026;SHT31;54819;48.030;14.710;2023-06-10T06:48:09;20.11;75.19
68026;SHT31;54819;48.030;14.710;2023-06-10T06:50:35;20.10;75.01
68026;SHT31;54819;48.030;14.710;2023-06-10T06:53:03;20.14;74.81
68026;SHT31;54819;48.030;14.710;2023-06-10T06:55:30;20.13;74.92
68026;SHT31;54819;48.030;14.710;2023-06-10T06:57:56;20.07;74.59
68026;SHT31;54819;48.030;14.710;2023-06-10T07:00:23;20.17;74.37
68026;SHT31;54819;48.030;14.710;2023-06-10T07:02:49;20.47;74.63
68026;SHT31;54819;48.030;14.710;2023-06-10T07:05:16;20.68;74.07
68026;SHT31;54819;48.030;14.710;2023-06-10T07:07:43;20.74;73.59
68026;SHT31;54819;48.030;14.710;2023-06-10T07:10:10;20.68;73.18
68026;SHT31;54819;48.030;14.710;2023-06-10T07:12:37;20.65;73.04
68026;SHT31;54819;48.030;14.710;2023-06-10T07:15:04;20.68;73.21
68026;SHT31;54819;48.030;14.710;2023-06-10T07:17:31;20.70;73.40
68026;SHT31;54819;48.030;14.710;2023-06-10T07:19:58;20.67;73.13
68026;SHT31;54819;48.030;14.710;2023-06-10T07:22:26;20.62;72.37
68026;SHT31;54819;48.030;14.710;2023-06-10T07:24:53;20.71;73.08
68026;SHT31;54819;48.030;14.710;2023-06-10T07:27:21;20.79;72.82
68026;SHT31;54819;48.030;14.710;2023-06-10T07:29:47;20.81;71.92
68026;SHT31;54819;48.030;14.710;2023-06-10T07:32:14;20.95;72.18
68026;SHT31;54819;48.030;14.710;2023-06-10T07:34:44;21.14;72.32
68026;SHT31;54819;48.030;14.710;2023-06-10T07:37:11;21.24;71.53
68026;SHT31;54819;48.030;14.710;2023-06-10T07:39:37;21.30;71.83
68026;SHT31;54819;48.030;14.710;2023-06-10T07:42:04;21.16;71.07
68026;SHT31;54819;48.030;14.710;2023-06-10T07:44:32;21.12;71.39
68026;SHT31;54819;48.030;14.710;2023-06-10T07:46:59;21.16;71.45
68026;SHT31;54819;48.030;14.710;2023-06-10T07:49:26;21.28;71.35
68026;SHT31;54819;48.030;14.710;2023-06-10T07:51:56;21.35;71.20
68026;SHT31;54819;48.030;14.710;2023-06-10T07:54:23;21.32;70.82
68026;SHT31;54819;48.030;14.710;2023-06-10T07:56:52;21.37;71.14
68026;SHT31;54819;48.030;14.710;2023-06-10T07:59:19;21.53;71.17
68026;SHT31;54819;48.030;14.710;2023-06-10T08:01:46;21.69;70.67
68026;SHT31;54819;48.030;14.710;2023-06-10T08:04:13;21.94;70.13
68026;SHT31;54819;48.030;14.710;2023-06-10T08:06:40;22.22;70.08
68026;SHT31;54819;48.030;14.710;2023-06-10T08:09:07;22.44;69.69
68026;SHT31;54819;48.030;14.710;2023-06-10T08:11:33;22.41;69.31
68026;SHT31;54819;48.030;14.710;2023-06-10T08:14:00;22.46;69.78
68026;SHT31;54819;48.030;14.710;2023-06-10T08:16:27;22.38;69.22
68026;SHT31;54819;48.030;14.710;2023-06-10T08:18:54;22.35;69.34
68026;SHT31;54819;48.030;14.710;2023-06-10T08:21:21;22.47;68.42
68026;SHT31;54819;48.030;14.710;2023-06-10T08:23:48;22.53;68.59
68026;SHT31;54819;48.030;14.710;2023-06-10T08:26:18;22.63;67.76
68026;SHT31;54819;48.030;14.710;2023-06-10T08:28:45;22.65;67.96
68026;SHT31;54819;48.030;14.710;2023-06-10T08:31:11;22.51;68.01
68026;SHT31;54819;48.030;14.710;2023-06-10T08:33:38;22.57;68.52
68026;SHT31;54819;48.030;14.710;2023-06-10T08:36:05;22.63;68.35
68026;SHT31;54819;48.030;14.710;2023-06-10T08:38:31;22.83;67.82
68026;SHT31;54819;48.030;14.710;2023-06-10T08:41:01;22.85;67.58
68026;SHT31;54819;48.030;14.710;2023-06-10T08:43:37;22.92;66.94
68026;SHT31;54819;48.030;14.710;2023-06-10T08:46:31;22.89;66.84
68026;SHT31;54819;48.030;14.710;2023-06-10T08:49:00;22.91;67.15
68026;SHT31;54819;48.030;14.710;2023-06-10T08:51:32;22.97;66.90
68026;SHT31;54819;48.030;14.710;2023-06-10T08:54:01;22.93;66.87
68026;SHT31;54819;48.030;14.710;2023-06-10T08:56:31;22.84;67.11
68026;SHT31;54819;48.030;14.710;2023-06-10T08:59:05;23.01;67.36
68026;SHT31;54819;48.030;14.710;2023-06-10T09:01:32;23.04;66.03
68026;SHT31;54819;48.030;14.710;2023-06-10T09:04:00;23.05;65.21
68026;SHT31;54819;48.030;14.710;2023-06-10T09:06:28;23.13;65.53
68026;SHT31;54819;48.030;14.710;2023-06-10T09:08:55;23.16;65.86
68026;SHT31;54819;48.030;14.710;2023-06-10T09:11:21;23.19;66.04
68026;SHT31;54819;48.030;14.710;2023-06-10T09:13:48;23.22;64.91
68026;SHT31;54819;48.030;14.710;2023-06-10T09:16:15;23.28;64.87
68026;SHT31;54819;48.030;14.710;2023-06-10T09:18:42;23.33;65.42
68026;SHT31;54819;48.030;14.710;2023-06-10T09:21:10;23.53;65.57
68026;SHT31;54819;48.030;14.710;2023-06-10T09:23:36;23.70;63.81
68026;SHT31;54819;48.030;14.710;2023-06-10T09:26:07;23.71;63.94
68026;SHT31;54819;48.030;14.710;2023-06-10T09:28:36;23.77;63.40
68026;SHT31;54819;48.030;14.710;2023-06-10T09:31:03;23.92;63.20
68026;SHT31;54819;48.030;14.710;2023-06-10T09:33:32;24.07;63.40
68026;SHT31;54819;48.030;14.710;2023-06-10T09:35:59;24.23;63.50
68026;SHT31;54819;48.030;14.710;2023-06-10T09:38:31;24.32;63.02
68026;SHT31;54819;48.030;14.710;2023-06-10T09:41:00;24.35;62.39
68026;SHT31;54819;48.030;14.710;2023-06-10T09:43:42;24.41;61.04
68026;SHT31;54819;48.030;14.710;2023-06-10T09:46:14;24.48;61.36
68026;SHT31;54819;48.030;14.710;2023-06-10T09:48:43;24.49;60.73
68026;SHT31;54819;48.030;14.710;2023-06-10T09:51:12;24.51;60.61
68026;SHT31;54819;48.030;14.710;2023-06-10T09:53:40;24.64;60.47
68026;SHT31;54819;48.030;14.710;2023-06-10T09:56:06;24.78;60.52
68026;SHT31;54819;48.030;14.710;2023-06-10T09:58:37;24.74;59.23
68026;SHT31;54819;48.030;14.710;2023-06-10T10:01:05;24.80;59.33
68026;SHT31;54819;48.030;14.710;2023-06-10T10:03:42;24.82;59.32
68026;SHT31;54819;48.030;14.710;2023-06-10T10:06:14;24.79;59.88
68026;SHT31;54819;48.030;14.710;2023-06-10T10:08:42;24.76;59.83
68026;SHT31;54819;48.030;14.710;2023-06-10T10:11:10;24.80;60.11
68026;SHT31;54819;48.030;14.710;2023-06-10T10:13:37;24.87;59.46
68026;SHT31;54819;48.030;14.710;2023-06-10T10:16:06;24.94;58.82
68026;SHT31;54819;48.030;14.710;2023-06-10T10:18:38;25.14;59.43
68026;SHT31;54819;48.030;14.710;2023-06-10T10:21:11;25.17;59.06
68026;SHT31;54819;48.030;14.710;2023-06-10T10:24:26;25.05;58.93
68026;SHT31;54819;48.030;14.710;2023-06-10T10:26:52;25.23;58.66
68026;SHT31;54819;48.030;14.710;2023-06-10T10:29:31;25.59;58.88
68026;SHT31;54819;48.030;14.710;2023-06-10T10:32:03;25.66;56.73
68026;SHT31;54819;48.030;14.710;2023-06-10T10:35:08;25.39;57.53
68026;SHT31;54819;48.030;14.710;2023-06-10T10:37:32;25.23;58.43
68026;SHT31;54819;48.030;14.710;2023-06-10T10:39:59;25.12;58.37
68026;SHT31;54819;48.030;14.710;2023-06-10T10:42:27;24.90;58.67
68026;SHT31;54819;48.030;14.710;2023-06-10T10:44:54;24.94;59.06
68026;SHT31;54819;48.030;14.710;2023-06-10T10:47:22;24.90;58.98
68026;SHT31;54819;48.030;14.710;2023-06-10T10:49:56;24.88;59.26
68026;SHT31;54819;48.030;14.710;2023-06-10T10:52:27;24.86;59.17
68026;SHT31;54819;48.030;14.710;2023-06-10T10:55:12;24.89;59.31
68026;SHT31;54819;48.030;14.710;2023-06-10T10:57:39;24.94;58.92
68026;SHT31;54819;48.030;14.710;2023-06-10T11:00:06;24.96;58.10
68026;SHT31;54819;48.030;14.710;2023-06-10T11:02:41;25.00;58.28
68026;SHT31;54819;48.030;14.710;2023-06-10T11:05:12;25.04;58.87
68026;SHT31;54819;48.030;14.710;2023-06-10T11:07:51;25.01;59.37
68026;SHT31;54819;48.030;14.710;2023-06-10T11:10:29;25.20;59.08
68026;SHT31;54819;48.030;14.710;2023-06-10T11:13:00;25.16;58.77
68026;SHT31;54819;48.030;14.710;2023-06-10T11:15:33;24.90;58.29
68026;SHT31;54819;48.030;14.710;2023-06-10T11:18:08;24.84;58.24
68026;SHT31;54819;48.030;14.710;2023-06-10T11:31:33;24.98;57.51
68026;SHT31;54819;48.030;14.710;2023-06-10T11:34:05;25.16;57.22
68026;SHT31;54819;48.030;14.710;2023-06-10T11:36:37;25.29;56.44
68026;SHT31;54819;48.030;14.710;2023-06-10T11:39:09;25.26;55.56
68026;SHT31;54819;48.030;14.710;2023-06-10T11:41:37;25.25;55.56
68026;SHT31;54819;48.030;14.710;2023-06-10T11:44:09;25.27;56.13
68026;SHT31;54819;48.030;14.710;2023-06-10T11:46:44;25.33;55.48
68026;SHT31;54819;48.030;14.710;2023-06-10T11:49:12;25.40;55.49
68026;SHT31;54819;48.030;14.710;2023-06-10T11:51:39;25.45;55.43
68026;SHT31;54819;48.030;14.710;2023-06-10T11:54:08;25.68;55.93
68026;SHT31;54819;48.030;14.710;2023-06-10T11:56:35;25.84;54.43
68026;SHT31;54819;48.030;14.710;2023-06-10T11:59:03;25.90;54.56
68026;SHT31;54819;48.030;14.710;2023-06-10T12:01:34;26.06;54.89
68026;SHT31;54819;48.030;14.710;2023-06-10T12:04:09;26.09;53.82
68026;SHT31;54819;48.030;14.710;2023-06-10T12:06:38;26.05;54.73
68026;SHT31;54819;48.030;14.710;2023-06-10T12:09:06;25.83;54.99
68026;SHT31;54819;48.030;14.710;2023-06-10T12:20:01;25.80;54.60
68026;SHT31;54819;48.030;14.710;2023-06-10T12:22:36;26.01;54.49
68026;SHT31;54819;48.030;14.710;2023-06-10T12:25:07;26.34;54.05
68026;SHT31;54819;48.030;14.710;2023-06-10T12:27:36;26.74;53.73
68026;SHT31;54819;48.030;14.710;2023-06-10T12:30:04;27.02;52.11
68026;SHT31;54819;48.030;14.710;2023-06-10T12:32:37;27.13;52.34
68026;SHT31;54819;48.030;14.710;2023-06-10T12:35:05;27.07;53.03
68026;SHT31;54819;48.030;14.710;2023-06-10T12:37:33;26.86;51.28
68026;SHT31;54819;48.030;14.710;2023-06-10T12:40:04;26.58;50.64
68026;SHT31;54819;48.030;14.710;2023-06-10T12:42:32;26.28;51.86
68026;SHT31;54819;48.030;14.710;2023-06-10T12:45:03;26.04;52.74
68026;SHT31;54819;48.030;14.710;2023-06-10T12:47:33;25.85;53.57
68026;SHT31;54819;48.030;14.710;2023-06-10T12:50:02;25.65;54.39
68026;SHT31;54819;48.030;14.710;2023-06-10T12:52:29;25.42;55.28
68026;SHT31;54819;48.030;14.710;2023-06-10T12:54:56;24.97;56.98
68026;SHT31;54819;48.030;14.710;2023-06-10T12:57:24;24.46;59.91
68026;SHT31;54819;48.030;14.710;2023-06-10T12:59:52;24.02;62.92
68026;SHT31;54819;48.030;14.710;2023-06-10T13:02:19;23.59;65.10
68026;SHT31;54819;48.030;14.710;2023-06-10T13:04:46;22.96;67.70
68026;SHT31;54819;48.030;14.710;2023-06-10T13:07:14;22.46;70.61
68026;SHT31;54819;48.030;14.710;2023-06-10T13:09:42;21.09;79.82
68026;SHT31;54819;48.030;14.710;2023-06-10T13:12:09;20.45;81.54
68026;SHT31;54819;48.030;14.710;2023-06-10T13:14:42;19.98;82.75
68026;SHT31;54819;48.030;14.710;2023-06-10T13:17:08;19.65;83.46
68026;SHT31;54819;48.030;14.710;2023-06-10T13:19:35;19.47;83.04
68026;SHT31;54819;48.030;14.710;2023-06-10T13:22:03;19.31;83.60
68026;SHT31;54819;48.030;14.710;2023-06-10T13:24:30;19.13;84.91
68026;SHT31;54819;48.030;14.710;2023-06-10T13:26:56;19.00;84.78
68026;SHT31;54819;48.030;14.710;2023-06-10T13:29:23;18.92;84.97
68026;SHT31;54819;48.030;14.710;2023-06-10T13:31:50;18.88;85.31
68026;SHT31;54819;48.030;14.710;2023-06-10T13:34:17;18.85;84.61
68026;SHT31;54819;48.030;14.710;2023-06-10T13:36:44;18.84;84.50
68026;SHT31;54819;48.030;14.710;2023-06-10T13:39:10;18.84;85.28
68026;SHT31;54819;48.030;14.710;2023-06-10T13:41:37;18.87;85.60
68026;SHT31;54819;48.030;14.710;2023-06-10T13:44:04;18.82;85.31
68026;SHT31;54819;48.030;14.710;2023-06-10T13:46:30;18.87;85.18
68026;SHT31;54819;48.030;14.710;2023-06-10T13:48:57;18.99;84.93
68026;SHT31;54819;48.030;14.710;2023-06-10T13:51:24;19.06;84.33
68026;SHT31;54819;48.030;14.710;2023-06-10T13:53:51;19.16;84.09
68026;SHT31;54819;48.030;14.710;2023-06-10T13:56:18;19.28;84.50
68026;SHT31;54819;48.030;14.710;2023-06-10T13:58:45;19.39;84.88
68026;SHT31;54819;48.030;14.710;2023-06-10T14:01:12;19.52;84.50
68026;SHT31;54819;48.030;14.710;2023-06-10T14:03:38;19.67;84.18
68026;SHT31;54819;48.030;14.710;2023-06-10T14:06:05;19.81;84.08
68026;SHT31;54819;48.030;14.710;2023-06-10T14:08:32;19.88;83.32
68026;SHT31;54819;48.030;14.710;2023-06-10T14:10:58;19.92;83.17
68026;SHT31;54819;48.030;14.710;2023-06-10T14:13:25;19.96;82.83
68026;SHT31;54819;48.030;14.710;2023-06-10T14:15:51;19.97;82.97
68026;SHT31;54819;48.030;14.710;2023-06-10T14:18:19;19.99;83.14
68026;SHT31;54819;48.030;14.710;2023-06-10T14:20:45;20.00;82.92
68026;SHT31;54819;48.030;14.710;2023-06-10T14:23:12;20.01;83.33
68026;SHT31;54819;48.030;14.710;2023-06-10T14:25:39;20.04;83.14
68026;SHT31;54819;48.030;14.710;2023-06-10T14:28:06;20.04;82.62
68026;SHT31;54819;48.030;14.710;2023-06-10T14:30:32;19.99;82.51
68026;SHT31;54819;48.030;14.710;2023-06-10T14:32:59;19.96;82.20
68026;SHT31;54819;48.030;14.710;2023-06-10T14:35:26;19.93;81.87
68026;SHT31;54819;48.030;14.710;2023-06-10T14:37:52;19.91;81.89
68026;SHT31;54819;48.030;14.710;2023-06-10T14:40:19;19.94;82.15
68026;SHT31;54819;48.030;14.710;2023-06-10T14:42:49;19.96;81.93
68026;SHT31;54819;48.030;14.710;2023-06-10T14:45:16;19.91;81.71
68026;SHT31;54819;48.030;14.710;2023-06-10T14:47:42;19.95;81.81
68026;SHT31;54819;48.030;14.710;2023-06-10T14:50:09;20.09;82.11
68026;SHT31;54819;48.030;14.710;2023-06-10T14:52:36;20.19;81.88
68026;SHT31;54819;48.030;14.710;2023-06-10T14:55:03;20.24;81.90
68026;SHT31;54819;48.030;14.710;2023-06-10T14:57:30;20.30;82.01
68026;SHT31;54819;48.030;14.710;2023-06-10T14:59:59;20.39;82.20
68026;SHT31;54819;48.030;14.710;2023-06-10T15:02:26;20.46;82.40
68026;SHT31;54819;48.030;14.710;2023-06-10T15:04:53;20.52;82.34
68026;SHT31;54819;48.030;14.710;2023-06-10T15:07:20;20.60;82.46
68026;SHT31;54819;48.030;14.710;2023-06-10T15:09:47;20.70;82.17
68026;SHT31;54819;48.030;14.710;2023-06-10T15:12:13;20.82;81.98
68026;SHT31;54819;48.030;14.710;2023-06-10T15:14:40;20.94;81.80
68026;SHT31;54819;48.030;14.710;2023-06-10T15:17:06;21.04;81.53
68026;SHT31;54819;48.030;14.710;2023-06-10T15:19:33;21.13;81.36
68026;SHT31;54819;48.030;14.710;2023-06-10T15:22:00;21.18;81.25
68026;SHT31;54819;48.030;14.710;2023-06-10T15:24:26;21.17;81.51
68026;SHT31;54819;48.030;14.710;2023-06-10T15:26:53;21.12;81.24
68026;SHT31;54819;48.030;14.710;2023-06-10T15:29:19;21.08;81.28
68026;SHT31;54819;48.030;14.710;2023-06-10T15:31:46;21.03;81.61
68026;SHT31;54819;48.030;14.710;2023-06-10T15:34:13;20.97;81.79
68026;SHT31;54819;48.030;14.710;2023-06-10T15:36:39;20.90;82.01
68026;SHT31;54819;48.030;14.710;2023-06-10T15:39:06;20.88;81.47
68026;SHT31;54819;48.030;14.710;2023-06-10T15:41:34;20.84;81.54
68026;SHT31;54819;48.030;14.710;2023-06-10T15:44:01;20.81;81.49
68026;SHT31;54819;48.030;14.710;2023-06-10T15:46:28;20.77;81.32